« Back
NWS Peachtree City, Ga » Text Product » CSG Terminal Aerodrome Forecast


Printer-friendly Version
Current Version              Previous Versions:   1  2  3  4  5  6  7  8  9  

Terminal Aerodrome Forecast

251
FTUS42 KFFC 181741
TAFCSG
TAF
KCSG 181741Z 1818/1918 19005KT P6SM VCSH BKN025
     FM182000 18005KT P6SM BKN035
     FM190100 12004KT 6SM -RA BKN015
     FM190400 14006KT 3SM SHRA BR OVC006 PROB30 1912/1914 3SM TSRA
      BKN010CB OVC012
     FM191400 19009KT 6SM -SHRA OVC015
     FM191700 21009KT 6SM -SHRA BKN025=



USA.gov is the U.S. government's official web portal to all federal, state and local government web resources and services.